Time;durP1;ratioP1;P1;durP2;ratioP2;P2;SDS_P1;SDS_P2;PMS_P1;PMS_P2;Temp;Humidity;BMP_temperature;BMP_pressure;BME280_temperature;BME280_humidity;BME280_pressure;Samples;Min_cycle;Max_cycle;Signal;HPM_P1;HPM_P2
2021/09/30 00:01:54;;;;;;;;;;;;;;;;;;5006592;28;19972;-79
2021/09/30 00:04:20;;;;;;;;;;;;;;;;;;5009254;28;19971;-79
2021/09/30 00:06:45;;;;;;;;;;;;;;;;;;5009775;28;19925;-79
2021/09/30 00:09:10;;;;;;;;;;;;;;;;;;5009332;28;19929;-79
2021/09/30 00:11:43;;;;;;;;;;;;;;;;;;5008923;28;20052;-79
2021/09/30 00:14:26;;;;;;;;;;;;;;;;;;5025354;28;19918;-78
2021/09/30 00:35:37;;;;;;;;;;;;;;;;;;5025700;28;19918;-78
2021/09/30 00:49:13;;;;;;;;;;;;;;;;;;4988083;28;20309;-79
2021/09/30 01:46:54;;;;;;;;;;;;;;;;;;5024197;28;19917;-79
2021/09/30 02:19:39;;;;;;;;;;;;;;;;;;5019454;28;19921;-79
2021/09/30 02:27:38;;;;;;;;;;;;;;;;;;5023385;28;19994;-78
2021/09/30 02:59:33;;;;;;;;;;;;;;;;;;5027110;28;19968;-78
2021/09/30 03:01:59;;;;;;;;;;;;;;;;;;5007446;28;19921;-78
2021/09/30 03:04:24;;;;;;;;;;;;;;;;;;5027103;28;19921;-78
2021/09/30 03:06:49;;;;;;;;;;;;;;;;;;5027122;28;19914;-78
2021/09/30 03:09:18;;;;;;;;;;;;;;;;;;5026835;28;20292;-78
2021/09/30 03:11:49;;;;;;;;;;;;;;;;;;5010656;28;19914;-79
2021/09/30 03:14:14;;;;;;;;;;;;;;;;;;5010865;28;19964;-78
2021/09/30 03:16:45;;;;;;;;;;;;;;;;;;5027238;28;20315;-78
2021/09/30 03:24:32;;;;;;;;;;;;;;;;;;5007791;28;20012;-78
2021/09/30 03:26:57;;;;;;;;;;;;;;;;;;5010201;28;20016;-78
2021/09/30 03:29:23;;;;;;;;;;;;;;;;;;5010303;28;20376;-78
2021/09/30 03:31:48;;;;;;;;;;;;;;;;;;5009749;28;19960;-78
2021/09/30 03:34:13;;;;;;;;;;;;;;;;;;5010547;28;20311;-78
2021/09/30 03:36:39;;;;;;;;;;;;;;;;;;5010109;28;19992;-78
2021/09/30 03:39:07;;;;;;;;;;;;;;;;;;5009315;28;19925;-78
2021/09/30 03:41:33;;;;;;;;;;;;;;;;;;5009568;28;19996;-78
2021/09/30 03:43:58;;;;;;;;;;;;;;;;;;5027002;28;20477;-78
2021/09/30 03:46:23;;;;;;;;;;;;;;;;;;5026542;28;20280;-78
2021/09/30 03:48:56;;;;;;;;;;;;;;;;;;5025967;28;19918;-79
2021/09/30 03:51:32;;;;;;;;;;;;;;;;;;5010319;28;20395;-79
2021/09/30 03:54:12;;;;;;;;;;;;;;;;;;5008258;28;20288;-78
2021/09/30 03:56:50;;;;;;;;;;;;;;;;;;5010274;28;19968;-78
2021/09/30 03:59:21;;;;;;;;;;;;;;;;;;5009930;28;19918;-78
2021/09/30 04:01:55;;;;;;;;;;;;;;;;;;5009059;28;20016;-79
2021/09/30 04:04:21;;;;;;;;;;;;;;;;;;5008305;28;19918;-79
2021/09/30 04:06:46;;;;;;;;;;;;;;;;;;5009466;28;19929;-79
2021/09/30 04:09:11;;;;;;;;;;;;;;;;;;5009020;28;19929;-78
2021/09/30 04:11:43;;;;;;;;;;;;;;;;;;5009236;28;19946;-79
2021/09/30 04:14:08;;;;;;;;;;;;;;;;;;5025950;28;20368;-79
2021/09/30 04:16:34;;;;;;;;;;;;;;;;;;5009379;28;19910;-78
2021/09/30 04:18:59;;;;;;;;;;;;;;;;;;5009168;28;20387;-78
2021/09/30 04:21:24;;;;;;;;;;;;;;;;;;4992609;28;20356;-78
2021/09/30 04:23:51;;;;;;;;;;;;;;;;;;5009615;28;19914;-78
2021/09/30 04:26:16;;;;;;;;;;;;;;;;;;4992706;28;19964;-79
2021/09/30 04:28:41;;;;;;;;;;;;;;;;;;5009345;28;19949;-78
2021/09/30 04:31:07;;;;;;;;;;;;;;;;;;5008794;28;19921;-78
2021/09/30 04:33:32;;;;;;;;;;;;;;;;;;5009062;28;19918;-79
2021/09/30 04:35:57;;;;;;;;;;;;;;;;;;4992951;28;19952;-78
2021/09/30 04:38:23;;;;;;;;;;;;;;;;;;4991981;28;19929;-78
2021/09/30 04:40:48;;;;;;;;;;;;;;;;;;5008953;28;19914;-78
2021/09/30 04:43:14;;;;;;;;;;;;;;;;;;5024909;28;19913;-78
2021/09/30 04:45:39;;;;;;;;;;;;;;;;;;5025450;28;20005;-81
2021/09/30 04:48:05;;;;;;;;;;;;;;;;;;5024880;28;19922;-80
2021/09/30 04:50:30;;;;;;;;;;;;;;;;;;5009024;28;19920;-80
2021/09/30 04:53:00;;;;;;;;;;;;;;;;;;5024650;28;19984;-80
2021/09/30 04:55:25;;;;;;;;;;;;;;;;;;5006904;28;19929;-80
2021/09/30 04:57:51;;;;;;;;;;;;;;;;;;5008219;28;19922;-80
2021/09/30 05:00:16;;;;;;;;;;;;;;;;;;5008877;28;19918;-80
2021/09/30 05:02:42;;;;;;;;;;;;;;;;;;5008222;28;19922;-80
2021/09/30 05:05:08;;;;;;;;;;;;;;;;;;5008466;28;19968;-81
2021/09/30 05:07:33;;;;;;;;;;;;;;;;;;5007527;28;19926;-80
2021/09/30 05:10:01;;;;;;;;;;;;;;;;;;4991571;28;19924;-80
2021/09/30 05:12:26;;;;;;;;;;;;;;;;;;5007323;28;19968;-84
2021/09/30 05:14:52;;;;;;;;;;;;;;;;;;5019492;28;19915;-85
2021/09/30 05:17:17;;;;;;;;;;;;;;;;;;5014373;28;19914;-83
2021/09/30 05:19:42;;;;;;;;;;;;;;;;;;5008217;28;19917;-82
2021/09/30 05:22:07;;;;;;;;;;;;;;;;;;5008278;28;19987;-81
2021/09/30 05:24:33;;;;;;;;;;;;;;;;;;4991879;28;20383;-82
2021/09/30 05:26:58;;;;;;;;;;;;;;;;;;5008165;28;19913;-83
2021/09/30 05:29:24;;;;;;;;;;;;;;;;;;4991345;28;20277;-82
2021/09/30 05:31:51;;;;;;;;;;;;;;;;;;5007895;28;20303;-83
2021/09/30 05:34:17;;;;;;;;;;;;;;;;;;5008425;28;20012;-83
2021/09/30 05:36:42;;;;;;;;;;;;;;;;;;4991730;28;19914;-83
2021/09/30 05:39:09;;;;;;;;;;;;;;;;;;5007406;28;19925;-83
2021/09/30 05:41:35;;;;;;;;;;;;;;;;;;5007901;28;19913;-84
2021/09/30 05:44:09;;;;;;;;;;;;;;;;;;5021621;28;19969;-84
2021/09/30 05:46:43;;;;;;;;;;;;;;;;;;5025219;28;19918;-84
2021/09/30 05:49:10;;;;;;;;;;;;;;;;;;5006630;28;20419;-85
2021/09/30 05:51:36;;;;;;;;;;;;;;;;;;5022727;28;19915;-84
2021/09/30 05:54:02;;;;;;;;;;;;;;;;;;5043723;28;19917;-85
2021/09/30 05:56:29;;;;;;;;;;;;;;;;;;5025072;28;19918;-85
2021/09/30 05:58:54;;;;;;;;;;;;;;;;;;5008051;28;19922;-86
2021/09/30 06:14:37;;;;;;;;;;;;;;;;;;5024817;28;19914;-85
2021/09/30 06:17:03;;;;;;;;;;;;;;;;;;5008143;28;19925;-86
2021/09/30 06:19:30;;;;;;;;;;;;;;;;;;5008148;28;19918;-85
2021/09/30 06:21:55;;;;;;;;;;;;;;;;;;5008461;28;20004;-86
2021/09/30 06:24:27;;;;;;;;;;;;;;;;;;5008074;28;20045;-85
2021/09/30 06:26:52;;;;;;;;;;;;;;;;;;5007771;28;19921;-84
2021/09/30 06:29:17;;;;;;;;;;;;;;;;;;5007839;28;19922;-84
2021/09/30 06:31:43;;;;;;;;;;;;;;;;;;5007285;28;20004;-84
2021/09/30 06:34:08;;;;;;;;;;;;;;;;;;5007136;28;20000;-83
2021/09/30 06:36:34;;;;;;;;;;;;;;;;;;5007260;28;20283;-85
2021/09/30 06:39:05;;;;;;;;;;;;;;;;;;5007351;28;20363;-86
2021/09/30 06:41:34;;;;;;;;;;;;;;;;;;5023504;28;19914;-86
2021/09/30 06:44:00;;;;;;;;;;;;;;;;;;5023986;28;19925;-86
2021/09/30 06:46:27;;;;;;;;;;;;;;;;;;5024142;28;19913;-85
2021/09/30 06:48:52;;;;;;;;;;;;;;;;;;5024570;28;19917;-85
2021/09/30 06:51:18;;;;;;;;;;;;;;;;;;5020724;28;19959;-85
2021/09/30 06:53:44;;;;;;;;;;;;;;;;;;4994517;28;20331;-85
2021/09/30 06:56:13;;;;;;;;;;;;;;;;;;5007624;28;19917;-86
2021/09/30 06:58:43;;;;;;;;;;;;;;;;;;5024251;28;20269;-85
2021/09/30 07:01:10;;;;;;;;;;;;;;;;;;5020684;28;19914;-84
2021/09/30 07:03:35;;;;;;;;;;;;;;;;;;5006958;28;19980;-84
2021/09/30 07:06:00;;;;;;;;;;;;;;;;;;4990884;28;19922;-83
2021/09/30 07:08:26;;;;;;;;;;;;;;;;;;5011042;28;19961;-84
2021/09/30 07:10:51;;;;;;;;;;;;;;;;;;5027335;28;19917;-84
2021/09/30 07:13:16;;;;;;;;;;;;;;;;;;5024284;28;19961;-84
2021/09/30 07:15:42;;;;;;;;;;;;;;;;;;5024152;28;19918;-84
2021/09/30 07:18:19;;;;;;;;;;;;;;;;;;5026975;28;19918;-84
2021/09/30 07:20:48;;;;;;;;;;;;;;;;;;5010119;28;20649;-85
2021/09/30 07:23:13;;;;;;;;;;;;;;;;;;5008430;28;19917;-84
2021/09/30 07:25:38;;;;;;;;;;;;;;;;;;5023150;28;20427;-85
2021/09/30 07:28:04;;;;;;;;;;;;;;;;;;5027039;28;19921;-83
2021/09/30 07:30:31;;;;;;;;;;;;;;;;;;5026203;28;19914;-85
2021/09/30 07:32:57;;;;;;;;;;;;;;;;;;5026911;28;19925;-86
2021/09/30 07:35:25;;;;;;;;;;;;;;;;;;5025908;28;19914;-84
2021/09/30 07:37:50;;;;;;;;;;;;;;;;;;5026488;28;19922;-85
2021/09/30 07:40:16;;;;;;;;;;;;;;;;;;5009515;28;20395;-84
2021/09/30 07:42:41;;;;;;;;;;;;;;;;;;5024011;28;19964;-84
2021/09/30 07:45:06;;;;;;;;;;;;;;;;;;5010233;28;19918;-85
2021/09/30 07:47:32;;;;;;;;;;;;;;;;;;5009257;28;19918;-84
2021/09/30 07:49:57;;;;;;;;;;;;;;;;;;4993555;28;19913;-84
2021/09/30 07:52:23;;;;;;;;;;;;;;;;;;5026268;28;19914;-83
2021/09/30 07:54:48;;;;;;;;;;;;;;;;;;5030054;28;19914;-84
2021/09/30 07:57:13;;;;;;;;;;;;;;;;;;5025797;28;20264;-84
2021/09/30 07:59:41;;;;;;;;;;;;;;;;;;5025223;28;20169;-82
2021/09/30 08:02:07;;;;;;;;;;;;;;;;;;5005889;28;19938;-83
2021/09/30 08:04:32;;;;;;;;;;;;;;;;;;5000459;28;19921;-85
2021/09/30 08:06:57;;;;;;;;;;;;;;;;;;5009861;28;20024;-83
2021/09/30 08:09:22;;;;;;;;;;;;;;;;;;5008965;28;20024;-84
2021/09/30 08:11:48;;;;;;;;;;;;;;;;;;5009332;28;19914;-83
2021/09/30 08:14:13;;;;;;;;;;;;;;;;;;5009499;28;19929;-84
2021/09/30 08:16:39;;;;;;;;;;;;;;;;;;5025991;28;19909;-84
2021/09/30 08:19:06;;;;;;;;;;;;;;;;;;5025894;28;19920;-83
2021/09/30 08:21:32;;;;;;;;;;;;;;;;;;5009106;28;19949;-83
2021/09/30 08:23:58;;;;;;;;;;;;;;;;;;5008874;28;20389;-83
2021/09/30 08:26:23;;;;;;;;;;;;;;;;;;4993507;28;20278;-84
2021/09/30 08:28:51;;;;;;;;;;;;;;;;;;5009410;28;19914;-84
2021/09/30 08:31:16;;;;;;;;;;;;;;;;;;5009030;28;19918;-84
2021/09/30 08:33:42;;;;;;;;;;;;;;;;;;5008878;28;19922;-84
2021/09/30 08:36:11;;;;;;;;;;;;;;;;;;5042638;28;20263;-84
2021/09/30 08:38:38;;;;;;;;;;;;;;;;;;5040653;28;19933;-84
2021/09/30 08:41:05;;;;;;;;;;;;;;;;;;5008836;28;20284;-86
2021/09/30 08:43:31;;;;;;;;;;;;;;;;;;5025558;28;19965;-84
2021/09/30 08:45:56;;;;;;;;;;;;;;;;;;5025565;28;20765;-84
2021/09/30 08:48:24;;;;;;;;;;;;;;;;;;5008868;28;19929;-85
2021/09/30 08:50:49;;;;;;;;;;;;;;;;;;5008833;28;19921;-84
2021/09/30 08:53:17;;;;;;;;;;;;;;;;;;5041799;28;20368;-84
2021/09/30 08:55:42;;;;;;;;;;;;;;;;;;5040232;28;19933;-83
2021/09/30 08:58:07;;;;;;;;;;;;;;;;;;5008457;28;19917;-83
2021/09/30 09:00:33;;;;;;;;;;;;;;;;;;5007977;28;19918;-84
2021/09/30 09:02:59;;;;;;;;;;;;;;;;;;5006154;28;20308;-85
2021/09/30 09:05:25;;;;;;;;;;;;;;;;;;5005135;28;19942;-84
2021/09/30 09:07:54;;;;;;;;;;;;;;;;;;5021294;28;19918;-83
2021/09/30 09:10:20;;;;;;;;;;;;;;;;;;5007927;28;19917;-83
2021/09/30 09:12:45;;;;;;;;;;;;;;;;;;5008834;28;19920;-84
2021/09/30 09:15:10;;;;;;;;;;;;;;;;;;5008175;28;19914;-83
2021/09/30 09:17:40;;;;;;;;;;;;;;;;;;4991515;28;19921;-83
2021/09/30 09:20:05;;;;;;;;;;;;;;;;;;5008103;28;20005;-83
2021/09/30 09:22:31;;;;;;;;;;;;;;;;;;5008329;28;20012;-83
2021/09/30 09:25:10;;;;;;;;;;;;;;;;;;5008326;28;19979;-84
2021/09/30 09:27:43;;;;;;;;;;;;;;;;;;5008224;28;19925;-84
2021/09/30 09:30:28;;;;;;;;;;;;;;;;;;5007683;28;19913;-84
2021/09/30 09:33:12;;;;;;;;;;;;;;;;;;5008566;28;19910;-83
2021/09/30 09:35:53;;;;;;;;;;;;;;;;;;5008340;28;19914;-84
2021/09/30 09:38:18;;;;;;;;;;;;;;;;;;5006767;28;19914;-83
2021/09/30 09:40:43;;;;;;;;;;;;;;;;;;5008358;28;20343;-84
2021/09/30 09:43:24;;;;;;;;;;;;;;;;;;5008541;28;19917;-84
2021/09/30 09:45:49;;;;;;;;;;;;;;;;;;5007818;28;20410;-83
2021/09/30 09:48:15;;;;;;;;;;;;;;;;;;5007457;28;19957;-83
2021/09/30 09:50:40;;;;;;;;;;;;;;;;;;5007205;28;19921;-82
2021/09/30 09:53:06;;;;;;;;;;;;;;;;;;5007882;28;20371;-83
2021/09/30 09:55:32;;;;;;;;;;;;;;;;;;5007759;28;20025;-83
2021/09/30 09:57:59;;;;;;;;;;;;;;;;;;5008007;28;19918;-83
2021/09/30 10:00:24;;;;;;;;;;;;;;;;;;4989954;28;19918;-83
2021/09/30 10:02:51;;;;;;;;;;;;;;;;;;5007761;28;19989;-83
2021/09/30 10:05:17;;;;;;;;;;;;;;;;;;5007968;28;20439;-83
2021/09/30 10:07:42;;;;;;;;;;;;;;;;;;5023718;28;20009;-83
2021/09/30 10:10:07;;;;;;;;;;;;;;;;;;5023839;28;19976;-83
2021/09/30 10:12:33;;;;;;;;;;;;;;;;;;5020882;28;19921;-83
2021/09/30 10:14:58;;;;;;;;;;;;;;;;;;5023805;28;19918;-83
2021/09/30 10:17:23;;;;;;;;;;;;;;;;;;4991215;28;19985;-84
2021/09/30 10:19:48;;;;;;;;;;;;;;;;;;5007055;28;19918;-84
2021/09/30 10:22:14;;;;;;;;;;;;;;;;;;5007421;28;19933;-84
2021/09/30 10:24:39;;;;;;;;;;;;;;;;;;5007338;28;19925;-84
2021/09/30 10:27:06;;;;;;;;;;;;;;;;;;5037382;28;19921;-84
2021/09/30 10:29:38;;;;;;;;;;;;;;;;;;4984243;28;20380;-85
2021/09/30 10:32:04;;;;;;;;;;;;;;;;;;5019823;28;19943;-85
2021/09/30 10:34:30;;;;;;;;;;;;;;;;;;4989511;28;20292;-85
2021/09/30 10:36:55;;;;;;;;;;;;;;;;;;5006559;28;19949;-84
2021/09/30 10:39:25;;;;;;;;;;;;;;;;;;5006794;28;19922;-85
2021/09/30 10:41:51;;;;;;;;;;;;;;;;;;5009371;28;19913;-84
2021/09/30 10:44:17;;;;;;;;;;;;;;;;;;5010346;28;19925;-84
2021/09/30 10:46:45;;;;;;;;;;;;;;;;;;5026227;28;19914;-84
2021/09/30 10:49:29;;;;;;;;;;;;;;;;;;5025923;28;19921;-85
2021/09/30 10:52:31;;;;;;;;;;;;;;;;;;5024342;28;19918;-85
2021/09/30 10:55:11;;;;;;;;;;;;;;;;;;4954646;29;19926;-84
2021/09/30 10:57:43;;;;;;;;;;;;;;;;;;5006131;28;20425;-85
2021/09/30 11:00:12;;;;;;;;;;;;;;;;;;5027545;28;19914;-85
2021/09/30 11:03:05;;;;;;;;;;;;;;;;;;5026192;28;19918;-85
2021/09/30 11:05:31;;;;;;;;;;;;;;;;;;5030553;28;19959;-84
2021/09/30 11:08:15;;;;;;;;;;;;;;;;;;5030410;28;19913;-84
2021/09/30 11:10:40;;;;;;;;;;;;;;;;;;5030438;28;20376;-85
2021/09/30 11:13:18;;;;;;;;;;;;;;;;;;5014322;28;19921;-84
2021/09/30 11:15:58;;;;;;;;;;;;;;;;;;5030461;28;20439;-84
2021/09/30 11:18:59;;;;;;;;;;;;;;;;;;5030554;28;19914;-84
2021/09/30 11:21:28;;;;;;;;;;;;;;;;;;4973734;28;19914;-84
2021/09/30 11:23:53;;;;;;;;;;;;;;;;;;5018782;28;20319;-84
2021/09/30 11:26:18;;;;;;;;;;;;;;;;;;5030549;28;19913;-85
2021/09/30 11:28:43;;;;;;;;;;;;;;;;;;5030125;28;19914;-85
2021/09/30 11:31:28;;;;;;;;;;;;;;;;;;5015065;28;19918;-86
2021/09/30 11:33:57;;;;;;;;;;;;;;;;;;5023789;28;19914;-85
2021/09/30 11:36:35;;;;;;;;;;;;;;;;;;5007413;28;20359;-85
2021/09/30 11:39:01;;;;;;;;;;;;;;;;;;5007052;28;19918;-84
2021/09/30 11:41:27;;;;;;;;;;;;;;;;;;5006752;28;20343;-85
2021/09/30 11:43:52;;;;;;;;;;;;;;;;;;5007156;28;19957;-84
2021/09/30 11:46:33;;;;;;;;;;;;;;;;;;5007014;28;19941;-84
2021/09/30 11:48:59;;;;;;;;;;;;;;;;;;5006076;28;19914;-84
2021/09/30 11:51:43;;;;;;;;;;;;;;;;;;5023004;28;20435;-85
2021/09/30 11:54:12;;;;;;;;;;;;;;;;;;5024965;28;19914;-85
2021/09/30 11:56:38;;;;;;;;;;;;;;;;;;5010355;28;19913;-84
2021/09/30 11:59:05;;;;;;;;;;;;;;;;;;5026489;28;19976;-85
2021/09/30 12:01:45;;;;;;;;;;;;;;;;;;5026320;28;19960;-84
2021/09/30 12:04:10;;;;;;;;;;;;;;;;;;5026582;28;20284;-85
2021/09/30 12:06:46;;;;;;;;;;;;;;;;;;5026497;28;19918;-85
2021/09/30 12:09:11;;;;;;;;;;;;;;;;;;5026147;28;20419;-84
2021/09/30 12:11:37;;;;;;;;;;;;;;;;;;5026172;28;19922;-84
2021/09/30 12:14:03;;;;;;;;;;;;;;;;;;5026323;28;19972;-84
2021/09/30 12:16:28;;;;;;;;;;;;;;;;;;5026142;28;20332;-84
2021/09/30 12:19:03;;;;;;;;;;;;;;;;;;5026217;28;19920;-84
2021/09/30 12:21:35;;;;;;;;;;;;;;;;;;5025911;28;19953;-84
2021/09/30 12:24:01;;;;;;;;;;;;;;;;;;5026259;28;19914;-84
2021/09/30 12:26:26;;;;;;;;;;;;;;;;;;5009697;28;19921;-84
2021/09/30 12:28:52;;;;;;;;;;;;;;;;;;5025731;28;19961;-84
2021/09/30 12:31:17;;;;;;;;;;;;;;;;;;5005962;28;20265;-83
2021/09/30 12:33:42;;;;;;;;;;;;;;;;;;5006273;28;20368;-84
2021/09/30 12:36:07;;;;;;;;;;;;;;;;;;5022506;28;20372;-84
2021/09/30 12:38:33;;;;;;;;;;;;;;;;;;5005813;28;19918;-83
2021/09/30 12:41:05;;;;;;;;;;;;;;;;;;5022322;28;19922;-83
2021/09/30 12:43:31;;;;;;;;;;;;;;;;;;5021598;28;19918;-84
2021/09/30 12:45:56;;;;;;;;;;;;;;;;;;5005575;28;19925;-83
2021/09/30 12:48:22;;;;;;;;;;;;;;;;;;5005913;28;19918;-84
2021/09/30 12:51:10;;;;;;;;;;;;;;;;;;5005707;28;19918;-83
2021/09/30 12:53:45;;;;;;;;;;;;;;;;;;4999811;28;19918;-84
2021/09/30 12:56:11;;;;;;;;;;;;;;;;;;5025224;28;19920;-84
2021/09/30 12:58:37;;;;;;;;;;;;;;;;;;5009290;28;19940;-84
2021/09/30 13:01:20;;;;;;;;;;;;;;;;;;5008971;28;20373;-84
2021/09/30 13:04:04;;;;;;;;;;;;;;;;;;5007811;28;20008;-83
2021/09/30 13:06:29;;;;;;;;;;;;;;;;;;5025458;28;20387;-83
2021/09/30 13:08:55;;;;;;;;;;;;;;;;;;5025103;28;19922;-84
2021/09/30 13:11:20;;;;;;;;;;;;;;;;;;5008455;28;19918;-83
2021/09/30 13:13:45;;;;;;;;;;;;;;;;;;5024488;28;19921;-83
2021/09/30 13:16:23;;;;;;;;;;;;;;;;;;5024850;28;19917;-84
2021/09/30 13:18:48;;;;;;;;;;;;;;;;;;5025002;28;19914;-84
2021/09/30 13:21:14;;;;;;;;;;;;;;;;;;5025044;28;19920;-85
2021/09/30 13:23:39;;;;;;;;;;;;;;;;;;5008559;28;19994;-85
2021/09/30 13:26:04;;;;;;;;;;;;;;;;;;5008669;28;19918;-85
2021/09/30 13:28:30;;;;;;;;;;;;;;;;;;5024560;28;19921;-85
2021/09/30 13:30:55;;;;;;;;;;;;;;;;;;5021710;28;20264;-85
2021/09/30 13:33:20;;;;;;;;;;;;;;;;;;5021935;28;19914;-84
2021/09/30 13:35:46;;;;;;;;;;;;;;;;;;5005200;28;20055;-85
2021/09/30 13:38:12;;;;;;;;;;;;;;;;;;5004694;28;19922;-84
2021/09/30 13:40:37;;;;;;;;;;;;;;;;;;5021429;28;19922;-85
2021/09/30 13:43:02;;;;;;;;;;;;;;;;;;5004663;28;20289;-83
2021/09/30 13:45:28;;;;;;;;;;;;;;;;;;5005003;28;20040;-83
2021/09/30 13:47:53;;;;;;;;;;;;;;;;;;5021434;28;20380;-83
2021/09/30 13:50:19;;;;;;;;;;;;;;;;;;5004874;28;19961;-83
2021/09/30 13:52:45;;;;;;;;;;;;;;;;;;5021545;28;20387;-83
2021/09/30 13:55:11;;;;;;;;;;;;;;;;;;5007497;28;20193;-83
2021/09/30 13:57:36;;;;;;;;;;;;;;;;;;5007846;28;19957;-83
2021/09/30 14:00:03;;;;;;;;;;;;;;;;;;5007806;28;19922;-83
2021/09/30 14:02:28;;;;;;;;;;;;;;;;;;4991427;28;19914;-83
2021/09/30 14:04:53;;;;;;;;;;;;;;;;;;5008019;28;19914;-83
2021/09/30 14:07:18;;;;;;;;;;;;;;;;;;5007419;28;20380;-84
2021/09/30 14:09:44;;;;;;;;;;;;;;;;;;4991046;28;19922;-84
2021/09/30 14:12:09;;;;;;;;;;;;;;;;;;5007697;28;19921;-83
2021/09/30 14:14:34;;;;;;;;;;;;;;;;;;5005302;28;20089;-83
2021/09/30 14:17:00;;;;;;;;;;;;;;;;;;5036627;28;19917;-86
2021/09/30 14:19:26;;;;;;;;;;;;;;;;;;4995152;28;19972;-84
2021/09/30 14:21:52;;;;;;;;;;;;;;;;;;4995298;28;19913;-84
2021/09/30 14:24:17;;;;;;;;;;;;;;;;;;5010351;28;20281;-84
2021/09/30 14:26:43;;;;;;;;;;;;;;;;;;5011073;28;19961;-85
2021/09/30 14:29:08;;;;;;;;;;;;;;;;;;5026917;28;19925;-84
2021/09/30 14:31:33;;;;;;;;;;;;;;;;;;5021556;28;20331;-85
2021/09/30 14:33:59;;;;;;;;;;;;;;;;;;5035762;28;19921;-84
2021/09/30 14:36:24;;;;;;;;;;;;;;;;;;5028186;28;19914;-86
2021/09/30 14:38:52;;;;;;;;;;;;;;;;;;5009929;28;19922;-85
2021/09/30 14:41:17;;;;;;;;;;;;;;;;;;5008750;28;20025;-85
2021/09/30 14:43:42;;;;;;;;;;;;;;;;;;5027148;28;20371;-85
2021/09/30 14:46:08;;;;;;;;;;;;;;;;;;5011611;28;19917;-85
2021/09/30 14:48:33;;;;;;;;;;;;;;;;;;5009418;28;19913;-86
2021/09/30 14:51:02;;;;;;;;;;;;;;;;;;4995172;28;19949;-86
2021/09/30 14:53:27;;;;;;;;;;;;;;;;;;5010913;28;19933;-86
2021/09/30 14:55:55;;;;;;;;;;;;;;;;;;4994538;28;19924;-86
2021/09/30 14:58:20;;;;;;;;;;;;;;;;;;5026789;28;19914;-84
2021/09/30 15:00:46;;;;;;;;;;;;;;;;;;5004985;28;20280;-85
2021/09/30 15:03:11;;;;;;;;;;;;;;;;;;4998143;28;20716;-84
2021/09/30 15:05:36;;;;;;;;;;;;;;;;;;5030620;28;19928;-84
2021/09/30 15:08:02;;;;;;;;;;;;;;;;;;5011239;28;20376;-84
2021/09/30 15:10:28;;;;;;;;;;;;;;;;;;5007091;28;20344;-84
2021/09/30 15:12:53;;;;;;;;;;;;;;;;;;4991153;28;20005;-85
2021/09/30 15:15:19;;;;;;;;;;;;;;;;;;5010663;28;20431;-84
2021/09/30 15:17:52;;;;;;;;;;;;;;;;;;5010469;28;19926;-84
2021/09/30 15:23:02;;;;;;;;;;;;;;;;;;5042111;28;20401;-83
2021/09/30 15:25:28;;;;;;;;;;;;;;;;;;5012204;28;20443;-82
2021/09/30 15:27:53;;;;;;;;;;;;;;;;;;5008825;28;19925;-82
2021/09/30 15:30:19;;;;;;;;;;;;;;;;;;5010672;28;19917;-82
2021/09/30 15:32:44;;;;;;;;;;;;;;;;;;5030379;28;20016;-82
2021/09/30 15:35:10;;;;;;;;;;;;;;;;;;5014703;28;19913;-82
2021/09/30 15:37:36;;;;;;;;;;;;;;;;;;5009630;28;19921;-84
2021/09/30 15:40:02;;;;;;;;;;;;;;;;;;4993300;28;19922;-84
2021/09/30 15:42:27;;;;;;;;;;;;;;;;;;5026774;28;19925;-84
2021/09/30 15:44:57;;;;;;;;;;;;;;;;;;5026812;28;20410;-84
2021/09/30 15:47:22;;;;;;;;;;;;;;;;;;5010425;28;19925;-84
2021/09/30 15:49:48;;;;;;;;;;;;;;;;;;5025900;28;19918;-84
2021/09/30 15:52:13;;;;;;;;;;;;;;;;;;5026010;28;20013;-84
2021/09/30 15:54:38;;;;;;;;;;;;;;;;;;5009352;28;19985;-85
2021/09/30 15:57:06;;;;;;;;;;;;;;;;;;5022969;28;19957;-86
2021/09/30 15:59:31;;;;;;;;;;;;;;;;;;5023380;28;19921;-85
2021/09/30 16:01:57;;;;;;;;;;;;;;;;;;5021825;28;19913;-85
2021/09/30 16:04:23;;;;;;;;;;;;;;;;;;5009499;28;19922;-83
2021/09/30 16:06:49;;;;;;;;;;;;;;;;;;5009660;28;19957;-84
2021/09/30 16:09:14;;;;;;;;;;;;;;;;;;5009096;28;20035;-84
2021/09/30 16:11:39;;;;;;;;;;;;;;;;;;5006311;28;19910;-83
2021/09/30 16:14:05;;;;;;;;;;;;;;;;;;5007268;28;20438;-83
2021/09/30 16:16:30;;;;;;;;;;;;;;;;;;5024279;28;19914;-83
2021/09/30 16:18:56;;;;;;;;;;;;;;;;;;5025109;28;20331;-84
2021/09/30 16:21:22;;;;;;;;;;;;;;;;;;5025863;28;19956;-83
2021/09/30 16:23:47;;;;;;;;;;;;;;;;;;5023891;28;20007;-84
2021/09/30 16:26:12;;;;;;;;;;;;;;;;;;5009721;28;19914;-83
2021/09/30 16:28:37;;;;;;;;;;;;;;;;;;5025805;28;19918;-83
2021/09/30 16:31:03;;;;;;;;;;;;;;;;;;5010267;28;19960;-83
2021/09/30 16:33:28;;;;;;;;;;;;;;;;;;5008795;28;19918;-83
2021/09/30 16:35:55;;;;;;;;;;;;;;;;;;5009678;28;19920;-82
2021/09/30 16:38:23;;;;;;;;;;;;;;;;;;5024312;28;19972;-83
2021/09/30 16:40:51;;;;;;;;;;;;;;;;;;5008547;28;19933;-83
2021/09/30 16:43:17;;;;;;;;;;;;;;;;;;5025719;28;19922;-83
2021/09/30 16:45:43;;;;;;;;;;;;;;;;;;5008723;28;19922;-83
2021/09/30 16:48:09;;;;;;;;;;;;;;;;;;5008725;28;20445;-82
2021/09/30 16:50:35;;;;;;;;;;;;;;;;;;5008979;28;19914;-83
2021/09/30 16:53:00;;;;;;;;;;;;;;;;;;5008504;28;19914;-83
2021/09/30 16:55:29;;;;;;;;;;;;;;;;;;4992178;28;19921;-84
2021/09/30 16:57:54;;;;;;;;;;;;;;;;;;5004530;28;20349;-84
2021/09/30 17:00:20;;;;;;;;;;;;;;;;;;5021841;28;20004;-82
2021/09/30 17:02:45;;;;;;;;;;;;;;;;;;5025294;28;20105;-83
2021/09/30 17:05:11;;;;;;;;;;;;;;;;;;5040032;28;19976;-81
2021/09/30 17:07:36;;;;;;;;;;;;;;;;;;5007545;28;20013;-81
2021/09/30 17:10:07;;;;;;;;;;;;;;;;;;5024167;28;19965;-80
2021/09/30 17:12:33;;;;;;;;;;;;;;;;;;5008188;28;19914;-82
2021/09/30 17:14:58;;;;;;;;;;;;;;;;;;5006751;28;19921;-83
2021/09/30 17:17:24;;;;;;;;;;;;;;;;;;5007261;28;20077;-81
2021/09/30 17:19:49;;;;;;;;;;;;;;;;;;5022951;28;19922;-83
2021/09/30 17:22:14;;;;;;;;;;;;;;;;;;5007550;28;19960;-82
2021/09/30 17:24:40;;;;;;;;;;;;;;;;;;5007481;28;20289;-82
2021/09/30 17:27:05;;;;;;;;;;;;;;;;;;5022977;28;19925;-80
2021/09/30 17:29:31;;;;;;;;;;;;;;;;;;5007481;28;20411;-82
2021/09/30 17:31:56;;;;;;;;;;;;;;;;;;5023944;28;19920;-82
2021/09/30 17:34:22;;;;;;;;;;;;;;;;;;5007902;28;20439;-84
2021/09/30 17:36:47;;;;;;;;;;;;;;;;;;5021962;28;19945;-82
2021/09/30 17:39:12;;;;;;;;;;;;;;;;;;5006875;28;19921;-81
2021/09/30 17:41:38;;;;;;;;;;;;;;;;;;5006968;28;20004;-83
2021/09/30 17:44:03;;;;;;;;;;;;;;;;;;5007416;28;19917;-84
2021/09/30 17:46:29;;;;;;;;;;;;;;;;;;5023440;28;19918;-81
2021/09/30 17:48:54;;;;;;;;;;;;;;;;;;5007440;28;19914;-83
2021/09/30 17:51:19;;;;;;;;;;;;;;;;;;5023946;28;19913;-84
2021/09/30 17:53:45;;;;;;;;;;;;;;;;;;5004149;28;19925;-84
2021/09/30 17:56:10;;;;;;;;;;;;;;;;;;5023972;28;19952;-83
2021/09/30 17:58:36;;;;;;;;;;;;;;;;;;5007475;28;19921;-83
2021/09/30 18:01:01;;;;;;;;;;;;;;;;;;5007635;28;19925;-83
2021/09/30 18:03:27;;;;;;;;;;;;;;;;;;5007406;28;19933;-83
2021/09/30 18:05:52;;;;;;;;;;;;;;;;;;5023604;28;20444;-84
2021/09/30 18:08:22;;;;;;;;;;;;;;;;;;5023486;28;19924;-83
2021/09/30 18:10:49;;;;;;;;;;;;;;;;;;5019795;28;19925;-84
2021/09/30 18:13:14;;;;;;;;;;;;;;;;;;5005089;28;19926;-83
2021/09/30 18:15:39;;;;;;;;;;;;;;;;;;5024425;28;19923;-83
2021/09/30 18:18:05;;;;;;;;;;;;;;;;;;5024080;28;19913;-83
2021/09/30 18:20:41;;;;;;;;;;;;;;;;;;5007639;28;19914;-84
2021/09/30 18:23:12;;;;;;;;;;;;;;;;;;5024108;28;19918;-81
2021/09/30 18:25:39;;;;;;;;;;;;;;;;;;5007821;28;19922;-82
2021/09/30 18:28:04;;;;;;;;;;;;;;;;;;5024169;28;20276;-82
2021/09/30 18:30:29;;;;;;;;;;;;;;;;;;5007919;28;19921;-82
2021/09/30 18:32:55;;;;;;;;;;;;;;;;;;5007408;28;20073;-83
2021/09/30 18:35:20;;;;;;;;;;;;;;;;;;5007749;28;19914;-82
2021/09/30 18:37:46;;;;;;;;;;;;;;;;;;5006986;28;19921;-82
2021/09/30 18:40:13;;;;;;;;;;;;;;;;;;5007273;28;19928;-82
2021/09/30 18:42:40;;;;;;;;;;;;;;;;;;5008112;28;19914;-82
2021/09/30 18:45:05;;;;;;;;;;;;;;;;;;5007617;28;19914;-82
2021/09/30 18:47:31;;;;;;;;;;;;;;;;;;5004436;28;19914;-81
2021/09/30 18:49:56;;;;;;;;;;;;;;;;;;5005366;28;20413;-82
2021/09/30 18:52:22;;;;;;;;;;;;;;;;;;5013354;28;19961;-82
2021/09/30 18:54:47;;;;;;;;;;;;;;;;;;5013851;28;19968;-83
2021/09/30 18:57:13;;;;;;;;;;;;;;;;;;5023558;28;19918;-81
2021/09/30 18:59:39;;;;;;;;;;;;;;;;;;4989107;28;19917;-82
2021/09/30 19:02:04;;;;;;;;;;;;;;;;;;5006812;28;20427;-83
2021/09/30 19:04:30;;;;;;;;;;;;;;;;;;5026842;28;19956;-81
2021/09/30 19:06:55;;;;;;;;;;;;;;;;;;5009270;28;19919;-82
2021/09/30 19:09:21;;;;;;;;;;;;;;;;;;5043668;28;19922;-82
2021/09/30 19:11:48;;;;;;;;;;;;;;;;;;5007126;28;20430;-82
2021/09/30 19:14:14;;;;;;;;;;;;;;;;;;5009946;28;19925;-82
2021/09/30 19:16:40;;;;;;;;;;;;;;;;;;5010236;28;19910;-82
2021/09/30 19:19:05;;;;;;;;;;;;;;;;;;5010681;28;19918;-82
2021/09/30 19:21:30;;;;;;;;;;;;;;;;;;5010677;28;19911;-82
2021/09/30 19:23:56;;;;;;;;;;;;;;;;;;5009653;28;19921;-82
2021/09/30 19:26:22;;;;;;;;;;;;;;;;;;5009379;28;20383;-82
2021/09/30 19:28:48;;;;;;;;;;;;;;;;;;4994252;28;20299;-82
2021/09/30 19:31:13;;;;;;;;;;;;;;;;;;5009489;28;19914;-82
2021/09/30 19:33:39;;;;;;;;;;;;;;;;;;5026455;28;20367;-82
2021/09/30 19:36:06;;;;;;;;;;;;;;;;;;4993590;28;19937;-81
2021/09/30 19:38:34;;;;;;;;;;;;;;;;;;5005645;28;20480;-82